Time;durP1;ratioP1;P1;durP2;ratioP2;P2;SDS_P1;SDS_P2;PMS_P1;PMS_P2;Temp;Humidity;BMP_temperature;BMP_pressure;BME280_temperature;BME280_humidity;BME280_pressure;Samples;Min_cycle;Max_cycle;Signal;HPM_P1;HPM_P2
2022/11/17 00:01:44;;;;;;;7.13;1.90;;;13.30;99.90;;;;;;5002541;28;20046;-81
2022/11/17 00:04:11;;;;;;;8.57;1.83;;;13.30;99.90;;;;;;4999681;28;20042;-80
2022/11/17 00:06:38;;;;;;;7.20;1.98;;;13.30;99.90;;;;;;5002258;28;20049;-80
2022/11/17 00:09:05;;;;;;;8.35;2.20;;;13.30;99.90;;;;;;4993069;28;20410;-80
2022/11/17 00:14:31;;;;;;;6.63;1.92;;;13.30;99.90;;;;;;5001577;28;20040;-80
2022/11/17 00:14:32;;;;;;;7.25;2.08;;;13.30;99.90;;;;;;5000243;28;20049;-81
2022/11/17 00:17:01;;;;;;;6.72;2.22;;;13.30;99.90;;;;;;5003694;28;20038;-80
2022/11/17 00:22:13;;;;;;;11.60;1.88;;;13.30;99.90;;;;;;4974462;28;20053;-80
2022/11/17 00:24:40;;;;;;;11.10;1.98;;;13.30;99.90;;;;;;4998824;28;20125;-81
2022/11/17 00:27:07;;;;;;;6.32;1.70;;;13.30;99.90;;;;;;5002597;28;20048;-80
2022/11/17 00:29:34;;;;;;;9.07;2.05;;;13.30;99.90;;;;;;5008231;28;20046;-80
2022/11/17 00:34:58;;;;;;;10.27;1.90;;;13.30;99.90;;;;;;4952698;28;20047;-80
2022/11/17 00:37:25;;;;;;;7.43;1.48;;;13.30;99.90;;;;;;4985202;28;20057;-80
2022/11/17 00:39:52;;;;;;;7.78;2.00;;;13.30;99.90;;;;;;5003431;28;20487;-80
2022/11/17 00:42:19;;;;;;;7.78;1.85;;;13.30;99.90;;;;;;5000501;28;20069;-80
2022/11/17 00:44:46;;;;;;;8.55;2.00;;;13.30;99.90;;;;;;5007180;28;20034;-80
2022/11/17 00:47:14;;;;;;;8.35;2.05;;;13.30;99.90;;;;;;4999921;28;20065;-80
2022/11/17 00:49:41;;;;;;;4.38;1.50;;;13.20;99.90;;;;;;4991222;28;20061;-80
2022/11/17 00:52:10;;;;;;;7.22;1.70;;;13.20;99.90;;;;;;4992251;28;20066;-80
2022/11/17 00:54:37;;;;;;;8.80;2.08;;;13.20;99.90;;;;;;5002162;28;20049;-81
2022/11/17 00:57:04;;;;;;;5.22;1.63;;;13.20;99.90;;;;;;4991221;28;20050;-80
2022/11/17 00:59:31;;;;;;;8.60;2.10;;;13.20;99.90;;;;;;4997692;28;20057;-81
2022/11/17 01:01:57;;;;;;;7.40;1.55;;;13.20;99.90;;;;;;5007380;28;20050;-80
2022/11/17 01:04:26;;;;;;;6.70;1.90;;;13.20;99.90;;;;;;4990904;28;20038;-80
2022/11/17 01:06:52;;;;;;;5.57;1.52;;;13.30;99.90;;;;;;4998506;28;20042;-80
2022/11/17 01:09:21;;;;;;;6.10;1.60;;;13.20;99.90;;;;;;4991431;28;20046;-80
2022/11/17 01:11:49;;;;;;;5.22;1.42;;;13.20;99.90;;;;;;4993276;28;20042;-80
2022/11/17 01:14:18;;;;;;;5.35;1.95;;;13.20;99.90;;;;;;4979797;28;20049;-80
2022/11/17 01:16:45;;;;;;;5.68;1.63;;;13.20;99.90;;;;;;4990911;28;20050;-80
2022/11/17 01:19:13;;;;;;;7.63;1.70;;;13.20;99.90;;;;;;4990316;28;20487;-80
2022/11/17 01:21:42;;;;;;;9.88;2.10;;;13.20;99.90;;;;;;4999076;28;20058;-80
2022/11/17 01:24:10;;;;;;;10.18;1.92;;;13.20;99.90;;;;;;5009205;28;20041;-81
2022/11/17 01:26:39;;;;;;;6.05;1.60;;;13.20;99.90;;;;;;4992340;28;20049;-81
2022/11/17 01:29:06;;;;;;;12.75;2.50;;;13.30;99.90;;;;;;5001324;28;20045;-81
2022/11/17 01:31:35;;;;;;;8.02;2.20;;;13.20;99.90;;;;;;5007789;28;20064;-81
2022/11/17 01:34:02;;;;;;;7.15;1.77;;;13.20;99.90;;;;;;5010617;28;20057;-81
2022/11/17 01:37:17;;;;;;;8.07;2.10;;;13.20;99.90;;;;;;4994749;28;20046;-81
2022/11/17 01:39:22;;;;;;;7.07;1.85;;;13.20;99.90;;;;;;4990797;28;20046;-80
2022/11/17 01:41:49;;;;;;;6.53;1.55;;;13.20;99.90;;;;;;4990727;28;20050;-81
2022/11/17 01:44:48;;;;;;;6.20;1.70;;;13.20;99.90;;;;;;4978415;28;20060;-80
2022/11/17 01:47:18;;;;;;;5.45;1.83;;;13.10;99.90;;;;;;4998498;28;20054;-80
2022/11/17 01:49:45;;;;;;;9.35;1.85;;;13.10;99.90;;;;;;4990631;28;20129;-80
2022/11/17 01:52:13;;;;;;;7.10;1.90;;;13.10;99.90;;;;;;4990634;28;20380;-80
2022/11/17 01:54:43;;;;;;;8.30;1.63;;;13.20;99.90;;;;;;4971714;28;20503;-80
2022/11/17 01:57:15;;;;;;;6.03;1.70;;;13.20;99.90;;;;;;4997647;28;20060;-80
2022/11/17 01:59:44;;;;;;;7.78;1.90;;;13.20;99.90;;;;;;5000663;28;20129;-80
2022/11/17 02:02:10;;;;;;;5.53;1.75;;;13.20;99.90;;;;;;4998492;28;20062;-81
2022/11/17 02:04:40;;;;;;;6.00;1.73;;;13.10;99.90;;;;;;5009151;28;20042;-81
2022/11/17 02:07:09;;;;;;;11.05;2.08;;;13.10;99.90;;;;;;4989657;28;20050;-80
2022/11/17 02:09:39;;;;;;;7.60;2.08;;;13.10;99.90;;;;;;4990263;28;20050;-80
2022/11/17 02:12:08;;;;;;;7.20;1.85;;;13.10;99.90;;;;;;4990275;28;20046;-80
2022/11/17 02:14:36;;;;;;;6.15;1.77;;;13.10;99.90;;;;;;4989337;28;20133;-80
2022/11/17 02:17:03;;;;;;;7.03;1.55;;;13.20;99.90;;;;;;5000150;28;20061;-81
2022/11/17 02:19:35;;;;;;;6.90;1.63;;;13.20;99.90;;;;;;5010040;28;20057;-80
2022/11/17 02:22:32;;;;;;;5.20;1.60;;;13.20;99.90;;;;;;4988880;28;20042;-80
2022/11/17 02:25:45;;;;;;;6.80;1.80;;;13.10;99.90;;;;;;4989053;28;20052;-80
2022/11/17 02:28:18;;;;;;;5.63;1.50;;;13.10;99.90;;;;;;4965877;28;20128;-80
2022/11/17 02:30:56;;;;;;;6.78;1.90;;;13.10;99.90;;;;;;5002272;28;20056;-80
2022/11/17 02:33:31;;;;;;;7.00;1.60;;;13.10;99.90;;;;;;4994323;28;20049;-80
2022/11/17 02:36:03;;;;;;;5.53;1.77;;;13.10;99.90;;;;;;4999101;28;20042;-80
2022/11/17 02:38:35;;;;;;;6.75;1.60;;;13.10;99.90;;;;;;4989182;28;20046;-80
2022/11/17 02:41:09;;;;;;;3.58;1.58;;;13.10;99.90;;;;;;4998662;28;20503;-80
2022/11/17 02:46:29;;;;;;;3.58;1.50;;;13.10;99.90;;;;;;4996655;28;20457;-80
2022/11/17 02:48:59;;;;;;;8.95;2.42;;;13.10;99.90;;;;;;4993055;28;20054;-80
2022/11/17 02:51:26;;;;;;;3.63;1.38;;;13.10;99.90;;;;;;4989773;28;20052;-80
2022/11/17 02:53:54;;;;;;;6.50;1.83;;;13.10;99.90;;;;;;4988739;28;20047;-80
2022/11/17 02:56:22;;;;;;;5.90;1.70;;;13.10;99.90;;;;;;5000426;28;20057;-80
2022/11/17 02:58:51;;;;;;;4.57;1.63;;;13.10;99.90;;;;;;4993837;28;20042;-80
2022/11/17 03:01:34;;;;;;;7.53;1.38;;;13.10;99.90;;;;;;4989482;28;20053;-80
2022/11/17 03:04:16;;;;;;;3.50;1.33;;;13.10;99.90;;;;;;4996085;28;20049;-80
2022/11/17 03:06:45;;;;;;;;;;;13.30;99.90;;;;;;4989681;28;20042;-80
2022/11/17 03:09:18;;;;;;;4.50;1.48;;;13.10;99.90;;;;;;4995738;28;19926;-80
2022/11/17 03:11:48;;;;;;;5.35;1.42;;;13.10;99.90;;;;;;4994796;28;20045;-83
2022/11/17 03:14:20;;;;;;;3.97;1.55;;;13.10;99.90;;;;;;4999734;28;20045;-80
2022/11/17 03:16:54;;;;;;;4.25;1.40;;;13.10;99.90;;;;;;5000413;28;20045;-80
2022/11/17 03:19:27;;;;;;;6.07;1.63;;;13.10;99.90;;;;;;4989664;28;20042;-80
2022/11/17 03:21:59;;;;;;;4.68;1.48;;;13.30;99.90;;;;;;4991449;28;20042;-80
2022/11/17 03:24:28;;;;;;;6.70;1.35;;;13.10;99.90;;;;;;5010077;28;20042;-80
2022/11/17 03:26:58;;;;;;;7.22;1.55;;;13.10;99.90;;;;;;5012722;28;20046;-80
2022/11/17 03:29:29;;;;;;;4.72;1.40;;;13.10;99.90;;;;;;5006932;28;20042;-80
2022/11/17 03:31:58;;;;;;;3.17;1.30;;;13.10;99.90;;;;;;5000756;28;20050;-80
2022/11/17 03:34:27;;;;;;;5.28;1.25;;;13.10;99.90;;;;;;5006494;28;20042;-80
2022/11/17 03:37:00;;;;;;;5.07;1.30;;;13.10;99.90;;;;;;4982662;28;20052;-80
2022/11/17 03:39:30;;;;;;;4.05;1.20;;;13.10;99.90;;;;;;5004571;28;20042;-80
2022/11/17 03:41:59;;;;;;;4.13;1.55;;;13.20;99.90;;;;;;5000071;28;20052;-80
2022/11/17 03:44:29;;;;;;;4.72;1.30;;;13.10;99.90;;;;;;5005023;28;20053;-80
2022/11/17 03:46:57;;;;;;;4.53;1.40;;;13.10;99.90;;;;;;5006021;28;20054;-80
2022/11/17 03:49:29;;;;;;;5.00;1.40;;;13.30;99.90;;;;;;5012594;28;20046;-80
2022/11/17 03:51:56;;;;;;;4.78;1.33;;;13.10;99.90;;;;;;5009314;28;20045;-80
2022/11/17 03:54:24;;;;;;;4.80;1.50;;;13.10;99.90;;;;;;4982802;28;20046;-80
2022/11/17 03:56:55;;;;;;;3.38;1.30;;;13.10;99.90;;;;;;5004471;28;20419;-80
2022/11/17 03:59:24;;;;;;;7.00;1.65;;;13.10;99.90;;;;;;4988310;28;20180;-80
2022/11/17 04:01:53;;;;;;;3.42;1.40;;;13.00;99.90;;;;;;5010555;28;20042;-80
2022/11/17 04:04:21;;;;;;;3.95;1.30;;;13.10;99.90;;;;;;5003322;28;20570;-80
2022/11/17 04:06:48;;;;;;;3.92;1.35;;;13.10;99.90;;;;;;4995407;28;20049;-80
2022/11/17 04:09:15;;;;;;;4.72;1.70;;;13.10;99.90;;;;;;4999724;28;20054;-80
2022/11/17 04:17:12;;;;;;;5.10;1.50;;;13.10;99.90;;;;;;4999332;28;20049;-80
2022/11/17 04:19:39;;;;;;;3.20;1.30;;;13.10;99.90;;;;;;4992298;28;20050;-80
2022/11/17 04:22:06;;;;;;;3.33;1.30;;;13.10;99.90;;;;;;4992293;28;20053;-80
2022/11/17 04:24:33;;;;;;;4.90;1.30;;;13.10;99.90;;;;;;4991602;28;20050;-80
2022/11/17 04:29:44;;;;;;;3.75;1.23;;;13.10;99.90;;;;;;5003908;28;20057;-80
2022/11/17 04:32:12;;;;;;;3.17;1.17;;;13.00;99.90;;;;;;5002714;28;20042;-80
2022/11/17 04:34:41;;;;;;;2.90;1.20;;;13.10;99.90;;;;;;5002880;28;20046;-80
2022/11/17 04:37:16;;;;;;;3.92;1.67;;;13.10;99.90;;;;;;4997774;28;20077;-80
2022/11/17 04:39:44;;;;;;;3.78;1.35;;;13.10;99.90;;;;;;5006656;28;20056;-80
2022/11/17 04:42:10;;;;;;;5.43;1.60;;;13.10;99.90;;;;;;4994093;28;20096;-80
2022/11/17 04:44:36;;;;;;;5.53;1.77;;;13.00;99.90;;;;;;5004808;28;20431;-80
2022/11/17 04:47:05;;;;;;;5.43;1.65;;;13.00;99.90;;;;;;4994885;28;20072;-80
2022/11/17 04:49:34;;;;;;;5.22;1.80;;;13.00;99.90;;;;;;4991952;28;20145;-80
2022/11/17 04:52:01;;;;;;;5.93;1.65;;;13.00;99.90;;;;;;4991666;28;20042;-80
2022/11/17 04:54:28;;;;;;;5.03;1.60;;;13.00;99.90;;;;;;4990942;28;20046;-82
2022/11/17 04:56:55;;;;;;;5.05;1.50;;;13.00;99.90;;;;;;4990736;28;20045;-80
2022/11/17 04:59:22;;;;;;;5.30;1.55;;;13.00;99.90;;;;;;5002976;28;20069;-80
2022/11/17 05:01:49;;;;;;;7.07;1.63;;;13.10;99.90;;;;;;4995480;28;20541;-80
2022/11/17 05:04:54;;;;;;;6.63;1.80;;;13.00;99.90;;;;;;4990399;28;20065;-82
2022/11/17 05:07:08;;;;;;;4.15;1.30;;;13.00;99.90;;;;;;4999411;28;20038;-82
2022/11/17 05:09:35;;;;;;;5.72;1.42;;;13.00;99.90;;;;;;4991402;28;20054;-80
2022/11/17 05:14:48;;;;;;;2.85;1.20;;;13.00;99.90;;;;;;5002967;28;20411;-80
2022/11/17 05:17:14;;;;;;;5.88;1.77;;;13.00;99.90;;;;;;4995205;28;20042;-80
2022/11/17 05:19:44;;;;;;;4.00;1.42;;;13.00;99.90;;;;;;4990464;28;20101;-79
2022/11/17 05:24:58;;;;;;;8.02;2.20;;;13.00;99.90;;;;;;4991024;28;20049;-84
2022/11/17 05:27:25;;;;;;;3.70;1.60;;;13.00;99.90;;;;;;5002579;28;20053;-84
2022/11/17 05:29:52;;;;;;;4.82;1.40;;;13.00;99.90;;;;;;4995330;28;20046;-80
2022/11/17 05:32:19;;;;;;;5.43;1.50;;;13.00;99.90;;;;;;5001488;28;20050;-81
2022/11/17 05:34:46;;;;;;;5.30;1.85;;;13.00;99.90;;;;;;5002700;28;20050;-81
2022/11/17 05:37:14;;;;;;;3.88;1.70;;;13.00;99.90;;;;;;5010607;28;20505;-81
2022/11/17 05:39:41;;;;;;;3.53;1.50;;;13.00;99.90;;;;;;5003451;28;20525;-82
2022/11/17 05:42:08;;;;;;;6.18;1.60;;;13.00;99.90;;;;;;5002269;28;20042;-82
2022/11/17 05:44:35;;;;;;;7.07;1.60;;;13.00;99.90;;;;;;5001380;28;20524;-83
2022/11/17 05:47:02;;;;;;;6.78;2.00;;;13.00;99.90;;;;;;4988608;28;20406;-81
2022/11/17 05:49:29;;;;;;;8.45;2.13;;;13.10;99.90;;;;;;5003244;28;20133;-91
2022/11/17 05:51:56;;;;;;;5.05;1.60;;;13.00;99.90;;;;;;4995078;28;20049;-84
2022/11/17 05:54:25;;;;;;;4.15;1.60;;;13.00;99.90;;;;;;5007206;22;20396;-87
2022/11/17 05:56:55;;;;;;;5.63;1.90;;;13.10;99.90;;;;;;4976500;28;20046;-86
2022/11/17 05:59:25;;;;;;;5.65;1.65;;;13.00;99.90;;;;;;4988608;28;20418;-86
2022/11/17 06:01:57;;;;;;;4.82;1.80;;;13.10;99.90;;;;;;5004924;28;20406;-87
2022/11/17 06:04:24;;;;;;;4.80;1.83;;;13.00;99.90;;;;;;4996484;28;20057;-85
2022/11/17 06:06:51;;;;;;;7.20;2.05;;;13.10;99.90;;;;;;4988584;28;20038;-85
2022/11/17 06:09:18;;;;;;;5.55;1.80;;;13.10;99.90;;;;;;4998127;28;20041;-86
2022/11/17 06:11:46;;;;;;;7.05;1.67;;;13.10;99.90;;;;;;5009592;28;20037;-84
2022/11/17 06:14:13;;;;;;;6.50;1.83;;;13.10;99.90;;;;;;5002878;28;20673;-83
2022/11/17 06:16:42;;;;;;;4.53;1.70;;;13.10;99.90;;;;;;5000347;28;20073;-86
2022/11/17 06:19:14;;;;;;;7.00;2.00;;;13.10;99.90;;;;;;4998232;28;20046;-85
2022/11/17 06:21:42;;;;;;;6.10;1.85;;;13.10;99.90;;;;;;4995619;28;20042;-90
2022/11/17 06:24:09;;;;;;;7.35;1.90;;;13.10;99.90;;;;;;4995508;28;20053;-84
2022/11/17 06:26:37;;;;;;;6.03;1.92;;;13.10;99.90;;;;;;4988329;28;20132;-88
2022/11/17 06:29:05;;;;;;;6.18;1.83;;;13.10;99.90;;;;;;5001675;28;20046;-85
2022/11/17 06:31:32;;;;;;;6.45;1.85;;;13.10;99.90;;;;;;5006827;28;20768;-84
2022/11/17 06:34:01;;;;;;;6.53;1.80;;;13.00;99.90;;;;;;4991336;28;20700;-85
2022/11/17 06:36:28;;;;;;;6.43;2.13;;;13.20;99.90;;;;;;4987847;28;20038;-85
2022/11/17 06:38:55;;;;;;;6.50;1.60;;;13.10;99.90;;;;;;4991633;28;20058;-87
2022/11/17 06:41:22;;;;;;;8.18;2.17;;;13.10;99.90;;;;;;4987273;28;20050;-86
2022/11/17 06:43:49;;;;;;;5.75;1.90;;;13.10;99.90;;;;;;4995331;28;20106;-85
2022/11/17 06:46:17;;;;;;;4.88;1.70;;;13.10;99.90;;;;;;4999452;28;20057;-86
2022/11/17 06:48:44;;;;;;;7.57;1.80;;;13.10;99.90;;;;;;4988590;28;20050;-86
2022/11/17 06:51:12;;;;;;;6.95;1.80;;;13.10;99.90;;;;;;5005270;28;20052;-85
2022/11/17 06:53:38;;;;;;;5.15;1.50;;;13.00;99.90;;;;;;4988938;28;20204;-87
2022/11/17 06:56:07;;;;;;;8.70;2.03;;;13.00;99.90;;;;;;4988019;28;20952;-87
2022/11/17 06:58:34;;;;;;;5.55;1.50;;;13.00;99.90;;;;;;5001536;28;20108;-87
2022/11/17 07:01:03;;;;;;;5.18;1.65;;;13.00;99.90;;;;;;5000720;28;20049;-86
2022/11/17 07:03:33;;;;;;;6.10;1.30;;;13.10;99.90;;;;;;5007237;28;20597;-87
2022/11/17 07:06:00;;;;;;;6.63;1.67;;;13.00;99.90;;;;;;4998709;28;20046;-86
2022/11/17 07:08:27;;;;;;;4.10;1.40;;;13.00;99.90;;;;;;4988685;28;20046;-87
2022/11/17 07:10:55;;;;;;;6.93;1.77;;;13.00;99.90;;;;;;4988726;28;20042;-87
2022/11/17 07:13:22;;;;;;;4.90;1.30;;;13.10;99.90;;;;;;4997346;28;20044;-86
2022/11/17 07:15:50;;;;;;;6.25;1.38;;;13.10;99.90;;;;;;4986714;28;20046;-87
2022/11/17 07:18:18;;;;;;;8.55;1.55;;;13.10;99.90;;;;;;5003628;28;20038;-87
2022/11/17 07:20:47;;;;;;;4.97;1.20;;;13.10;99.90;;;;;;5003770;28;20150;-87
2022/11/17 07:23:14;;;;;;;5.15;1.40;;;13.10;99.90;;;;;;4988925;28;20046;-87
2022/11/17 07:25:41;;;;;;;6.82;1.30;;;13.00;99.90;;;;;;4992783;28;20052;-87
2022/11/17 07:28:08;;;;;;;3.58;1.10;;;13.10;99.90;;;;;;4989016;28;20406;-87
2022/11/17 07:30:35;;;;;;;5.80;1.73;;;13.10;99.90;;;;;;4988476;28;20141;-86
2022/11/17 07:33:02;;;;;;;4.70;1.33;;;13.10;99.90;;;;;;4990479;28;20495;-87
2022/11/17 07:35:29;;;;;;;4.05;1.17;;;13.10;99.90;;;;;;4987212;28;20046;-86
2022/11/17 07:38:01;;;;;;;6.50;1.38;;;13.10;99.90;;;;;;4986691;28;20061;-87
2022/11/17 07:40:28;;;;;;;5.35;1.23;;;13.10;99.90;;;;;;4987506;28;20038;-86
2022/11/17 07:42:58;;;;;;;7.85;1.45;;;13.10;99.90;;;;;;4987755;28;20869;-89
2022/11/17 07:45:27;;;;;;;7.35;1.30;;;13.10;99.90;;;;;;4985962;28;20042;-88
2022/11/17 07:47:56;;;;;;;6.93;1.30;;;13.10;99.90;;;;;;4990440;28;20043;-88
2022/11/17 07:50:23;;;;;;;4.53;1.60;;;13.10;99.90;;;;;;4986030;28;20050;-89
2022/11/17 07:52:54;;;;;;;6.47;1.63;;;13.10;99.90;;;;;;4990949;28;20047;-90
2022/11/17 07:55:23;;;;;;;4.65;1.40;;;13.10;99.90;;;;;;4984385;28;20096;-88
2022/11/17 07:57:55;;;;;;;5.85;1.30;;;13.10;99.90;;;;;;4987960;28;20057;-88
2022/11/17 08:00:22;;;;;;;6.40;1.38;;;13.10;99.90;;;;;;4971542;28;20144;-88
2022/11/17 08:02:49;;;;;;;6.07;1.38;;;13.10;99.90;;;;;;4989388;28;20058;-87
2022/11/17 08:05:16;;;;;;;6.20;1.35;;;13.10;99.90;;;;;;4988012;28;20105;-87
2022/11/17 08:07:43;;;;;;;4.88;1.23;;;13.10;99.90;;;;;;4991364;28;20040;-87
2022/11/17 08:10:10;;;;;;;4.95;1.45;;;13.10;99.90;;;;;;4989475;28;20050;-88
2022/11/17 08:12:39;;;;;;;5.38;1.40;;;13.10;99.90;;;;;;4990846;28;20161;-88
2022/11/17 08:15:07;;;;;;;7.53;1.45;;;13.10;99.90;;;;;;4991428;28;20125;-87
2022/11/17 08:17:35;;;;;;;6.70;1.75;;;13.10;99.90;;;;;;4991339;28;20130;-87
2022/11/17 08:20:04;;;;;;;4.90;1.35;;;13.20;99.90;;;;;;4987453;28;20392;-88
2022/11/17 08:22:31;;;;;;;6.72;1.38;;;13.10;99.90;;;;;;4987025;28;20042;-89
2022/11/17 08:24:58;;;;;;;4.13;1.00;;;13.10;99.90;;;;;;4994151;28;20042;-88
2022/11/17 08:27:25;;;;;;;2.85;0.90;;;13.10;99.90;;;;;;4991626;28;20163;-88
2022/11/17 08:29:53;;;;;;;3.63;0.70;;;13.10;99.90;;;;;;4993184;28;20536;-88
2022/11/17 08:32:21;;;;;;;5.68;1.25;;;13.00;99.90;;;;;;4972352;28;20518;-88
2022/11/17 08:34:48;;;;;;;4.68;0.90;;;13.00;99.90;;;;;;4988048;28;20038;-88
2022/11/17 08:37:15;;;;;;;2.53;0.80;;;13.30;99.90;;;;;;4991258;28;20047;-88
2022/11/17 08:39:42;;;;;;;3.38;0.70;;;13.10;99.90;;;;;;4990636;28;20053;-87
2022/11/17 08:42:08;;;;;;;2.22;0.80;;;13.00;99.90;;;;;;4971768;28;20039;-88
2022/11/17 08:44:35;;;;;;;4.35;0.95;;;13.10;99.90;;;;;;4988861;28;20052;-88
2022/11/17 08:47:04;;;;;;;2.35;0.90;;;13.00;99.90;;;;;;4992904;28;20030;-88
2022/11/17 08:49:31;;;;;;;9.25;1.10;;;13.00;99.90;;;;;;4991772;28;20498;-87
2022/11/17 08:51:58;;;;;;;3.63;0.90;;;13.00;99.90;;;;;;4975928;28;20057;-88
2022/11/17 08:54:25;;;;;;;3.42;0.98;;;13.10;99.90;;;;;;4995006;28;20049;-89
2022/11/17 08:56:56;;;;;;;5.60;1.33;;;13.10;99.90;;;;;;5004856;28;20588;-88
2022/11/17 08:59:24;;;;;;;3.85;1.20;;;13.10;99.90;;;;;;4990424;28;20035;-89
2022/11/17 09:01:51;;;;;;;3.08;1.05;;;13.00;99.90;;;;;;4972661;28;20168;-89
2022/11/17 09:04:19;;;;;;;4.82;1.10;;;13.10;99.90;;;;;;4973815;28;20038;-88
2022/11/17 09:06:46;;;;;;;8.07;1.13;;;13.00;99.90;;;;;;4992422;28;20054;-89
2022/11/17 09:09:13;;;;;;;3.53;1.20;;;13.00;99.90;;;;;;4991093;28;20042;-89
2022/11/17 09:11:40;;;;;;;3.15;1.00;;;13.00;99.90;;;;;;4998649;28;20080;-89
2022/11/17 09:14:07;;;;;;;4.38;1.10;;;13.00;99.90;;;;;;4989580;28;20495;-89
2022/11/17 09:16:35;;;;;;;3.75;1.00;;;13.10;99.90;;;;;;4988693;28;20038;-89
2022/11/17 09:19:02;;;;;;;4.80;1.00;;;13.10;99.90;;;;;;4975020;28;20042;-88
2022/11/17 09:21:31;;;;;;;5.28;1.40;;;13.10;99.90;;;;;;4973251;28;20196;-87
2022/11/17 09:23:57;;;;;;;5.95;1.25;;;13.10;99.90;;;;;;4989099;28;20112;-84
2022/11/17 09:26:28;;;;;;;4.32;1.40;;;13.10;99.90;;;;;;4988205;28;20038;-81
2022/11/17 09:28:55;;;;;;;3.83;1.05;;;13.10;99.90;;;;;;4989524;28;20046;-84
2022/11/17 09:31:23;;;;;;;8.73;1.50;;;13.10;99.90;;;;;;4990282;28;20577;-84
2022/11/17 09:33:50;;;;;;;6.55;1.27;;;13.10;99.90;;;;;;4992094;28;20046;-84
2022/11/17 09:36:17;;;;;;;5.90;1.30;;;13.10;99.90;;;;;;4998827;28;20053;-84
2022/11/17 09:38:46;;;;;;;5.03;1.42;;;13.20;99.90;;;;;;4988712;28;20058;-84
2022/11/17 09:41:25;;;;;;;4.38;1.45;;;13.20;99.90;;;;;;5005687;28;20042;-83
2022/11/17 09:43:59;;;;;;;5.47;1.40;;;13.20;99.90;;;;;;4971549;28;20050;-84
2022/11/17 09:46:34;;;;;;;4.75;1.35;;;13.20;99.90;;;;;;5004948;28;20045;-84
2022/11/17 09:49:07;;;;;;;3.88;1.20;;;13.30;99.90;;;;;;5002313;28;20056;-84
2022/11/17 09:51:36;;;;;;;7.00;1.40;;;13.20;99.90;;;;;;4991943;28;20042;-84
2022/11/17 09:54:11;;;;;;;4.05;1.35;;;13.30;99.90;;;;;;4974098;28;20531;-86
2022/11/17 09:56:39;;;;;;;3.83;1.33;;;13.30;99.90;;;;;;4995301;28;20046;-88
2022/11/17 09:59:10;;;;;;;5.90;1.20;;;13.30;99.90;;;;;;4972828;28;20144;-84
2022/11/17 10:01:38;;;;;;;7.65;1.50;;;13.30;99.90;;;;;;5004794;28;20052;-84
2022/11/17 10:04:09;;;;;;;6.60;1.30;;;13.30;99.90;;;;;;5002601;28;20129;-86
2022/11/17 10:06:37;;;;;;;6.32;1.02;;;13.30;99.90;;;;;;4992365;28;20100;-88
2022/11/17 10:09:15;;;;;;;5.63;1.27;;;13.30;99.90;;;;;;4990202;28;20611;-91
2022/11/17 10:11:43;;;;;;;6.90;1.70;;;13.30;99.90;;;;;;4990339;28;20058;-87
2022/11/17 10:14:14;;;;;;;4.60;1.17;;;13.30;99.90;;;;;;4998208;28;20606;-86
2022/11/17 10:16:43;;;;;;;4.05;1.30;;;13.30;99.90;;;;;;5002662;28;20046;-89
2022/11/17 10:19:15;;;;;;;4.00;1.15;;;13.40;99.90;;;;;;4987720;28;20046;-88
2022/11/17 10:21:42;;;;;;;4.05;1.17;;;13.30;99.90;;;;;;4993068;28;20043;-87
2022/11/17 10:24:10;;;;;;;3.63;1.10;;;13.40;99.90;;;;;;5007940;28;20380;-85
2022/11/17 10:26:48;;;;;;;7.22;1.30;;;13.50;99.90;;;;;;4985132;28;20050;-87
2022/11/17 10:29:16;;;;;;;4.60;1.30;;;13.40;99.90;;;;;;4994744;28;20053;-84
2022/11/17 10:31:45;;;;;;;4.25;1.33;;;13.40;99.90;;;;;;4997528;28;20145;-86
2022/11/17 10:34:13;;;;;;;8.30;1.17;;;13.50;99.90;;;;;;4994159;28;20046;-88
2022/11/17 10:36:46;;;;;;;5.80;1.42;;;13.50;99.90;;;;;;4999312;28;20043;-87
2022/11/17 10:39:33;;;;;;;4.82;1.30;;;13.50;99.90;;;;;;4990253;28;20046;-86
2022/11/17 10:42:02;;;;;;;5.28;1.45;;;13.50;99.90;;;;;;4999152;28;20073;-82
2022/11/17 10:44:30;;;;;;;5.47;1.65;;;13.60;99.90;;;;;;4990748;28;20045;-83
2022/11/17 10:46:59;;;;;;;4.78;1.38;;;13.50;99.90;;;;;;5005568;28;20043;-85
2022/11/17 10:49:32;;;;;;;7.30;1.65;;;13.50;99.90;;;;;;4987754;28;20045;-83
2022/11/17 10:54:43;;;;;;;6.68;1.27;;;13.60;99.90;;;;;;5494707;22;20089;-81
2022/11/17 10:57:15;;;;;;;5.40;1.27;;;13.60;99.90;;;;;;4955854;28;20669;-80
2022/11/17 10:59:44;;;;;;;4.68;1.00;;;13.60;99.90;;;;;;4968934;28;20125;-81
2022/11/17 11:02:27;;;;;;;5.03;1.17;;;13.60;99.90;;;;;;4968750;28;20047;-81
2022/11/17 11:05:06;;;;;;;5.68;1.42;;;13.60;99.90;;;;;;4963112;28;20066;-82
2022/11/17 11:07:33;;;;;;;4.45;1.00;;;13.60;99.90;;;;;;4965965;28;20053;-82
2022/11/17 11:10:06;;;;;;;4.15;1.10;;;13.70;99.90;;;;;;4966958;28;20406;-82
2022/11/17 11:12:36;;;;;;;2.90;1.08;;;13.70;99.90;;;;;;4966562;28;20057;-82
2022/11/17 11:15:04;;;;;;;4.18;1.35;;;13.60;99.90;;;;;;4950792;28;20113;-81
2022/11/17 11:17:31;;;;;;;3.50;1.13;;;13.60;99.90;;;;;;4966184;28;20051;-81
2022/11/17 11:19:59;;;;;;;3.83;1.30;;;13.70;99.90;;;;;;4970141;28;20530;-82
2022/11/17 11:22:36;;;;;;;4.75;1.42;;;13.70;99.90;;;;;;4968426;28;20043;-81
2022/11/17 11:25:14;;;;;;;5.03;1.50;;;13.70;99.90;;;;;;4967484;28;20055;-81
2022/11/17 11:27:57;;;;;;;6.22;1.30;;;13.70;99.90;;;;;;4968643;28;20122;-81
2022/11/17 11:30:24;;;;;;;5.28;1.30;;;13.70;99.90;;;;;;4983358;23;20174;-78
2022/11/17 11:33:06;;;;;;;5.57;1.17;;;13.70;99.90;;;;;;4966777;28;20070;-78
2022/11/17 11:35:48;;;;;;;3.58;0.85;;;13.70;99.90;;;;;;4967960;28;20064;-78
2022/11/17 11:38:23;;;;;;;4.60;1.00;;;13.70;99.90;;;;;;4967308;28;20313;-78
2022/11/17 11:41:14;;;;;;;3.85;0.90;;;13.70;99.90;;;;;;4972145;28;20117;-78
2022/11/17 11:43:50;;;;;;;3.80;0.80;;;13.70;99.90;;;;;;4959451;28;20062;-78
2022/11/17 11:46:21;;;;;;;7.38;1.00;;;13.70;99.90;;;;;;4953966;28;20474;-78
2022/11/17 11:48:49;;;;;;;4.32;0.90;;;13.60;99.90;;;;;;4971511;28;20502;-79
2022/11/17 11:53:56;;;;;;;4.97;1.30;;;13.70;99.90;;;;;;4950962;28;20561;-78
2022/11/17 11:56:31;;;;;;;5.53;0.90;;;13.70;99.90;;;;;;4953693;28;20054;-79
2022/11/17 11:59:01;;;;;;;4.65;1.02;;;13.70;99.90;;;;;;4968656;28;20073;-78
2022/11/17 12:01:31;;;;;;;4.78;0.93;;;13.70;99.90;;;;;;4970118;28;20047;-79
2022/11/17 12:04:07;;;;;;;6.95;1.23;;;13.70;99.90;;;;;;4953592;28;20065;-78
2022/11/17 12:06:42;;;;;;;5.60;1.45;;;13.70;99.90;;;;;;4969178;28;20125;-79
2022/11/17 12:09:35;;;;;;;3.42;1.10;;;13.70;99.90;;;;;;4976059;28;20070;-78
2022/11/17 12:12:07;;;;;;;3.97;1.30;;;13.70;99.90;;;;;;4963408;28;20060;-79
2022/11/17 12:14:36;;;;;;;4.43;1.90;;;13.70;99.90;;;;;;4972094;28;20070;-78
2022/11/17 12:17:06;;;;;;;4.97;1.60;;;13.70;99.90;;;;;;4974868;28;20038;-78
2022/11/17 12:19:49;;;;;;;5.22;1.70;;;13.70;99.90;;;;;;4971753;28;20466;-78
2022/11/17 12:22:40;;;;;;;5.57;1.70;;;13.70;99.90;;;;;;4971981;28;20039;-78
2022/11/17 12:25:16;;;;;;;5.45;1.60;;;13.70;99.90;;;;;;4973106;28;20133;-78
2022/11/17 12:27:47;;;;;;;3.78;1.17;;;13.70;99.90;;;;;;4972356;28;20051;-79
2022/11/17 12:30:53;;;;;;;4.85;1.60;;;13.70;99.90;;;;;;4969964;28;20057;-79
2022/11/17 12:33:20;;;;;;;4.70;1.30;;;13.60;99.90;;;;;;4966929;28;21301;-79
2022/11/17 12:36:26;;;;;;;5.57;1.80;;;13.70;99.90;;;;;;4976697;28;20423;-79
2022/11/17 12:38:54;;;;;;;7.13;2.15;;;13.70;99.90;;;;;;4967254;28;20628;-78
2022/11/17 12:41:58;;;;;;;4.28;2.00;;;13.70;99.90;;;;;;4974937;28;20053;-79
2022/11/17 12:44:59;;;;;;;15.98;5.55;;;13.70;99.90;;;;;;4955254;28;20146;-79
2022/11/17 12:47:28;;;;;;;15.68;6.10;;;13.70;99.90;;;;;;4982958;28;20062;-79
2022/11/17 12:50:36;;;;;;;11.05;4.30;;;13.70;99.90;;;;;;4975342;28;20125;-79
2022/11/17 12:53:29;;;;;;;14.50;5.90;;;13.70;99.90;;;;;;4969278;28;20129;-79
2022/11/17 12:56:16;;;;;;;20.77;8.27;;;13.70;99.90;;;;;;4972949;28;20140;-78
2022/11/17 12:58:52;;;;;;;21.58;9.07;;;13.70;99.90;;;;;;4971309;28;20043;-79
2022/11/17 13:01:26;;;;;;;10.45;3.50;;;13.70;99.90;;;;;;4976520;28;20836;-78
2022/11/17 13:03:59;;;;;;;23.20;9.20;;;13.70;99.90;;;;;;4982025;28;20047;-78
2022/11/17 13:06:26;;;;;;;16.65;6.55;;;13.70;99.90;;;;;;4968074;28;20046;-78
2022/11/17 13:08:57;;;;;;;15.30;5.93;;;13.70;99.90;;;;;;4978389;28;20053;-81
2022/11/17 13:11:24;;;;;;;8.52;3.25;;;13.70;99.90;;;;;;4963931;28;20174;-82
2022/11/17 13:14:07;;;;;;;5.70;2.60;;;13.60;99.90;;;;;;4967192;28;20043;-81
2022/11/17 13:16:35;;;;;;;9.13;2.30;;;13.60;99.90;;;;;;4971885;28;20138;-81
2022/11/17 13:19:04;;;;;;;5.25;2.30;;;13.60;99.90;;;;;;4976010;28;20043;-81
2022/11/17 13:21:32;;;;;;;3.30;1.25;;;13.60;99.90;;;;;;4967418;28;20157;-81
2022/11/17 13:24:00;;;;;;;3.20;1.10;;;13.60;99.90;;;;;;4979642;28;20093;-81
2022/11/17 13:26:30;;;;;;;8.93;1.42;;;13.60;99.90;;;;;;4971509;28;20054;-81
2022/11/17 13:29:05;;;;;;;4.90;1.20;;;13.60;99.90;;;;;;4971087;28;20499;-81
2022/11/17 13:31:32;;;;;;;3.33;1.05;;;13.60;99.90;;;;;;4970090;28;20039;-81